Stone, United Kingdom
Current Conditions -  °F | °C
As of 10:50 AM on Friday 28 Nov 2014 (Local Time) from EGOS Reporting Station
Haze Haze  
Wind Chill: 10°   Ceiling: 2200
Heat Index: 10°   Visibility: 3mi
Dew Point:   Wind: 9mph
Humidity: 94%   Direction: 60°ENE
Pressure: 29.65"   Gusts: NA
Location:  52.91°N, 2.15°W
Report Text: EGOS 281050Z 06008KT 5000 HZ SCT008 BKN022 10/09 Q1004 GRN TEMPO FEW008 BKN022 WHT
Loading
Personal Weather Stations






























Interactive Weather Map New forecast layout! Learn more

10-Day Weather Forecast

Advertisements
Track Severe Weather on mobile